sensor_id;sensor_type;location;lat;lon;timestamp;P1;durP1;ratioP1;P2;durP2;ratioP2
49193;SDS011;35029;50.804;12.866;2023-02-28T00:00:20;7.50;;;5.07;;
49193;SDS011;35029;50.804;12.866;2023-02-28T00:02:46;8.90;;;5.20;;
49193;SDS011;35029;50.804;12.866;2023-02-28T00:05:13;8.35;;;5.57;;
49193;SDS011;35029;50.804;12.866;2023-02-28T00:07:41;6.03;;;4.90;;
49193;SDS011;35029;50.804;12.866;2023-02-28T00:10:14;7.80;;;4.57;;
49193;SDS011;35029;50.804;12.866;2023-02-28T00:12:46;5.00;;;4.27;;
49193;SDS011;35029;50.804;12.866;2023-02-28T00:15:13;7.70;;;4.90;;
49193;SDS011;35029;50.804;12.866;2023-02-28T00:17:38;7.27;;;4.93;;
49193;SDS011;35029;50.804;12.866;2023-02-28T00:20:05;7.20;;;4.80;;
49193;SDS011;35029;50.804;12.866;2023-02-28T00:22:33;5.15;;;4.45;;
49193;SDS011;35029;50.804;12.866;2023-02-28T00:24:59;7.17;;;4.97;;
49193;SDS011;35029;50.804;12.866;2023-02-28T00:27:25;6.10;;;4.47;;
49193;SDS011;35029;50.804;12.866;2023-02-28T00:29:51;7.57;;;4.57;;
49193;SDS011;35029;50.804;12.866;2023-02-28T00:32:16;5.10;;;4.27;;
49193;SDS011;35029;50.804;12.866;2023-02-28T00:34:43;6.10;;;3.83;;
49193;SDS011;35029;50.804;12.866;2023-02-28T00:37:09;5.80;;;3.97;;
49193;SDS011;35029;50.804;12.866;2023-02-28T00:39:37;6.60;;;4.37;;
49193;SDS011;35029;50.804;12.866;2023-02-28T00:42:05;7.23;;;4.40;;
49193;SDS011;35029;50.804;12.866;2023-02-28T00:44:33;6.70;;;4.40;;
49193;SDS011;35029;50.804;12.866;2023-02-28T00:46:59;6.07;;;4.40;;
49193;SDS011;35029;50.804;12.866;2023-02-28T00:49:26;5.87;;;4.40;;
49193;SDS011;35029;50.804;12.866;2023-02-28T00:51:52;5.85;;;3.88;;
49193;SDS011;35029;50.804;12.866;2023-02-28T00:54:19;6.95;;;4.75;;
49193;SDS011;35029;50.804;12.866;2023-02-28T00:56:46;6.72;;;4.28;;
49193;SDS011;35029;50.804;12.866;2023-02-28T00:59:13;6.07;;;3.97;;
49193;SDS011;35029;50.804;12.866;2023-02-28T01:01:39;8.40;;;4.50;;
49193;SDS011;35029;50.804;12.866;2023-02-28T01:04:05;6.13;;;4.07;;
49193;SDS011;35029;50.804;12.866;2023-02-28T01:06:31;5.93;;;4.20;;
49193;SDS011;35029;50.804;12.866;2023-02-28T01:08:58;5.87;;;4.17;;
49193;SDS011;35029;50.804;12.866;2023-02-28T01:11:24;5.60;;;3.78;;
49193;SDS011;35029;50.804;12.866;2023-02-28T01:13:51;6.33;;;4.03;;
49193;SDS011;35029;50.804;12.866;2023-02-28T01:16:17;5.47;;;3.90;;
49193;SDS011;35029;50.804;12.866;2023-02-28T01:18:44;7.23;;;3.77;;
49193;SDS011;35029;50.804;12.866;2023-02-28T01:21:11;6.33;;;4.03;;
49193;SDS011;35029;50.804;12.866;2023-02-28T01:23:39;5.63;;;4.17;;
49193;SDS011;35029;50.804;12.866;2023-02-28T01:26:11;5.07;;;3.60;;
49193;SDS011;35029;50.804;12.866;2023-02-28T01:28:40;6.30;;;4.10;;
49193;SDS011;35029;50.804;12.866;2023-02-28T01:31:06;6.95;;;3.97;;
49193;SDS011;35029;50.804;12.866;2023-02-28T01:33:32;5.53;;;3.70;;
49193;SDS011;35029;50.804;12.866;2023-02-28T01:36:00;6.30;;;4.37;;
49193;SDS011;35029;50.804;12.866;2023-02-28T01:38:28;10.73;;;4.30;;
49193;SDS011;35029;50.804;12.866;2023-02-28T01:40:54;7.37;;;3.90;;
49193;SDS011;35029;50.804;12.866;2023-02-28T01:43:55;7.00;;;3.90;;
49193;SDS011;35029;50.804;12.866;2023-02-28T01:46:12;5.05;;;3.53;;
49193;SDS011;35029;50.804;12.866;2023-02-28T01:48:45;7.75;;;3.83;;
49193;SDS011;35029;50.804;12.866;2023-02-28T01:51:17;7.73;;;4.10;;
49193;SDS011;35029;50.804;12.866;2023-02-28T01:53:54;6.70;;;3.80;;
49193;SDS011;35029;50.804;12.866;2023-02-28T01:56:25;6.70;;;4.37;;
49193;SDS011;35029;50.804;12.866;2023-02-28T01:58:54;6.40;;;3.53;;
49193;SDS011;35029;50.804;12.866;2023-02-28T02:01:22;7.27;;;3.87;;
49193;SDS011;35029;50.804;12.866;2023-02-28T02:03:53;5.53;;;3.83;;
49193;SDS011;35029;50.804;12.866;2023-02-28T02:06:21;6.07;;;4.23;;
49193;SDS011;35029;50.804;12.866;2023-02-28T02:09:09;7.00;;;3.70;;
49193;SDS011;35029;50.804;12.866;2023-02-28T02:11:36;5.87;;;3.67;;
49193;SDS011;35029;50.804;12.866;2023-02-28T02:16:50;6.40;;;3.70;;
49193;SDS011;35029;50.804;12.866;2023-02-28T02:25:19;7.87;;;4.43;;
49193;SDS011;35029;50.804;12.866;2023-02-28T02:28:31;6.87;;;3.83;;
49193;SDS011;35029;50.804;12.866;2023-02-28T02:37:23;7.83;;;4.13;;
49193;SDS011;35029;50.804;12.866;2023-02-28T02:40:05;6.97;;;4.23;;
49193;SDS011;35029;50.804;12.866;2023-02-28T02:45:12;6.70;;;4.23;;
49193;SDS011;35029;50.804;12.866;2023-02-28T02:47:46;8.33;;;4.93;;
49193;SDS011;35029;50.804;12.866;2023-02-28T02:50:17;8.13;;;4.37;;
49193;SDS011;35029;50.804;12.866;2023-02-28T02:52:49;4.90;;;4.07;;
49193;SDS011;35029;50.804;12.866;2023-02-28T02:55:21;8.23;;;4.57;;
49193;SDS011;35029;50.804;12.866;2023-02-28T02:57:50;5.93;;;4.30;;
49193;SDS011;35029;50.804;12.866;2023-02-28T03:00:24;7.27;;;4.70;;
49193;SDS011;35029;50.804;12.866;2023-02-28T03:02:54;7.80;;;4.57;;
49193;SDS011;35029;50.804;12.866;2023-02-28T03:05:26;5.97;;;4.03;;
49193;SDS011;35029;50.804;12.866;2023-02-28T03:07:56;8.10;;;4.80;;
49193;SDS011;35029;50.804;12.866;2023-02-28T03:10:28;5.60;;;3.80;;
49193;SDS011;35029;50.804;12.866;2023-02-28T03:18:39;5.43;;;4.07;;
49193;SDS011;35029;50.804;12.866;2023-02-28T03:21:14;7.93;;;4.40;;
49193;SDS011;35029;50.804;12.866;2023-02-28T03:23:48;6.97;;;3.80;;
49193;SDS011;35029;50.804;12.866;2023-02-28T03:26:23;8.23;;;4.33;;
49193;SDS011;35029;50.804;12.866;2023-02-28T03:28:54;6.67;;;4.57;;
49193;SDS011;35029;50.804;12.866;2023-02-28T03:34:08;7.57;;;4.90;;
49193;SDS011;35029;50.804;12.866;2023-02-28T03:36:44;5.87;;;4.00;;
49193;SDS011;35029;50.804;12.866;2023-02-28T03:39:16;7.93;;;4.32;;
49193;SDS011;35029;50.804;12.866;2023-02-28T03:41:58;5.80;;;4.43;;
49193;SDS011;35029;50.804;12.866;2023-02-28T03:44:32;7.70;;;5.37;;
49193;SDS011;35029;50.804;12.866;2023-02-28T03:47:04;8.80;;;5.37;;
49193;SDS011;35029;50.804;12.866;2023-02-28T03:49:57;7.47;;;4.85;;
49193;SDS011;35029;50.804;12.866;2023-02-28T03:52:31;6.37;;;4.63;;
49193;SDS011;35029;50.804;12.866;2023-02-28T03:55:02;6.05;;;4.55;;
49193;SDS011;35029;50.804;12.866;2023-02-28T04:00:06;8.45;;;5.38;;
49193;SDS011;35029;50.804;12.866;2023-02-28T04:02:37;9.27;;;5.47;;
49193;SDS011;35029;50.804;12.866;2023-02-28T04:05:04;6.10;;;4.50;;
49193;SDS011;35029;50.804;12.866;2023-02-28T04:07:32;9.80;;;6.20;;
49193;SDS011;35029;50.804;12.866;2023-02-28T04:09:57;8.27;;;5.30;;
49193;SDS011;35029;50.804;12.866;2023-02-28T04:12:24;8.23;;;6.03;;
49193;SDS011;35029;50.804;12.866;2023-02-28T04:14:49;8.20;;;5.73;;
49193;SDS011;35029;50.804;12.866;2023-02-28T04:17:15;8.37;;;5.90;;
49193;SDS011;35029;50.804;12.866;2023-02-28T04:19:41;9.80;;;6.17;;
49193;SDS011;35029;50.804;12.866;2023-02-28T04:22:07;8.10;;;6.13;;
49193;SDS011;35029;50.804;12.866;2023-02-28T04:24:34;8.70;;;5.20;;
49193;SDS011;35029;50.804;12.866;2023-02-28T04:26:59;7.77;;;5.67;;
49193;SDS011;35029;50.804;12.866;2023-02-28T04:29:26;7.20;;;5.00;;
49193;SDS011;35029;50.804;12.866;2023-02-28T04:31:53;7.77;;;5.27;;
49193;SDS011;35029;50.804;12.866;2023-02-28T04:34:23;10.57;;;7.03;;
49193;SDS011;35029;50.804;12.866;2023-02-28T04:36:49;8.67;;;5.50;;
49193;SDS011;35029;50.804;12.866;2023-02-28T04:39:16;13.57;;;5.50;;
49193;SDS011;35029;50.804;12.866;2023-02-28T04:41:44;8.63;;;5.47;;
49193;SDS011;35029;50.804;12.866;2023-02-28T04:44:10;6.40;;;4.87;;
49193;SDS011;35029;50.804;12.866;2023-02-28T04:46:36;9.80;;;5.50;;
49193;SDS011;35029;50.804;12.866;2023-02-28T04:49:01;10.60;;;5.77;;
49193;SDS011;35029;50.804;12.866;2023-02-28T04:51:27;12.60;;;6.13;;
49193;SDS011;35029;50.804;12.866;2023-02-28T04:53:53;11.03;;;6.63;;
49193;SDS011;35029;50.804;12.866;2023-02-28T04:56:20;12.17;;;6.40;;
49193;SDS011;35029;50.804;12.866;2023-02-28T04:58:46;11.03;;;7.73;;
49193;SDS011;35029;50.804;12.866;2023-02-28T05:03:41;13.73;;;7.03;;
49193;SDS011;35029;50.804;12.866;2023-02-28T05:06:08;9.63;;;7.07;;
49193;SDS011;35029;50.804;12.866;2023-02-28T05:08:34;10.90;;;6.97;;
49193;SDS011;35029;50.804;12.866;2023-02-28T05:11:00;10.27;;;7.03;;
49193;SDS011;35029;50.804;12.866;2023-02-28T05:13:26;10.27;;;7.33;;
49193;SDS011;35029;50.804;12.866;2023-02-28T05:15:53;11.97;;;7.20;;
49193;SDS011;35029;50.804;12.866;2023-02-28T05:18:20;15.17;;;7.30;;
49193;SDS011;35029;50.804;12.866;2023-02-28T05:20:45;10.53;;;7.50;;
49193;SDS011;35029;50.804;12.866;2023-02-28T05:23:12;9.60;;;7.27;;
49193;SDS011;35029;50.804;12.866;2023-02-28T05:25:38;10.53;;;7.30;;
49193;SDS011;35029;50.804;12.866;2023-02-28T05:28:05;13.77;;;8.30;;
49193;SDS011;35029;50.804;12.866;2023-02-28T05:30:31;10.77;;;7.17;;
49193;SDS011;35029;50.804;12.866;2023-02-28T05:32:57;12.70;;;7.87;;
49193;SDS011;35029;50.804;12.866;2023-02-28T05:35:24;10.63;;;7.83;;
49193;SDS011;35029;50.804;12.866;2023-02-28T05:37:50;11.90;;;7.60;;
49193;SDS011;35029;50.804;12.866;2023-02-28T05:40:16;13.43;;;8.20;;
49193;SDS011;35029;50.804;12.866;2023-02-28T05:42:42;15.17;;;8.73;;
49193;SDS011;35029;50.804;12.866;2023-02-28T05:45:08;12.30;;;7.83;;
49193;SDS011;35029;50.804;12.866;2023-02-28T05:47:34;15.93;;;8.47;;
49193;SDS011;35029;50.804;12.866;2023-02-28T05:50:00;12.87;;;8.37;;
49193;SDS011;35029;50.804;12.866;2023-02-28T05:52:27;10.27;;;7.70;;
49193;SDS011;35029;50.804;12.866;2023-02-28T05:54:53;13.97;;;9.23;;
49193;SDS011;35029;50.804;12.866;2023-02-28T05:57:18;15.27;;;9.07;;
49193;SDS011;35029;50.804;12.866;2023-02-28T05:59:44;12.93;;;9.30;;
49193;SDS011;35029;50.804;12.866;2023-02-28T06:02:14;13.57;;;8.97;;
49193;SDS011;35029;50.804;12.866;2023-02-28T06:07:10;12.63;;;8.40;;
49193;SDS011;35029;50.804;12.866;2023-02-28T06:09:35;13.53;;;9.97;;
49193;SDS011;35029;50.804;12.866;2023-02-28T06:12:02;14.57;;;9.63;;
49193;SDS011;35029;50.804;12.866;2023-02-28T06:14:31;12.93;;;9.03;;
49193;SDS011;35029;50.804;12.866;2023-02-28T06:16:57;17.17;;;9.40;;
49193;SDS011;35029;50.804;12.866;2023-02-28T06:19:24;17.43;;;10.83;;
49193;SDS011;35029;50.804;12.866;2023-02-28T06:21:54;14.30;;;9.53;;
49193;SDS011;35029;50.804;12.866;2023-02-28T06:24:20;16.40;;;9.80;;
49193;SDS011;35029;50.804;12.866;2023-02-28T06:26:46;15.43;;;10.00;;
49193;SDS011;35029;50.804;12.866;2023-02-28T06:29:12;14.60;;;10.67;;
49193;SDS011;35029;50.804;12.866;2023-02-28T06:31:42;14.90;;;9.93;;
49193;SDS011;35029;50.804;12.866;2023-02-28T06:34:10;14.17;;;10.13;;
49193;SDS011;35029;50.804;12.866;2023-02-28T06:36:40;18.73;;;10.43;;
49193;SDS011;35029;50.804;12.866;2023-02-28T06:39:07;15.57;;;10.13;;
49193;SDS011;35029;50.804;12.866;2023-02-28T06:41:34;15.03;;;10.20;;
49193;SDS011;35029;50.804;12.866;2023-02-28T06:44:11;15.73;;;9.90;;
49193;SDS011;35029;50.804;12.866;2023-02-28T06:46:39;15.20;;;10.40;;
49193;SDS011;35029;50.804;12.866;2023-02-28T06:49:07;15.00;;;10.17;;
49193;SDS011;35029;50.804;12.866;2023-02-28T06:51:37;14.43;;;10.43;;
49193;SDS011;35029;50.804;12.866;2023-02-28T06:54:04;17.93;;;11.17;;
49193;SDS011;35029;50.804;12.866;2023-02-28T06:56:30;16.13;;;10.17;;
49193;SDS011;35029;50.804;12.866;2023-02-28T06:58:56;15.67;;;10.43;;
49193;SDS011;35029;50.804;12.866;2023-02-28T07:01:22;14.70;;;11.23;;
49193;SDS011;35029;50.804;12.866;2023-02-28T07:03:49;16.80;;;10.57;;
49193;SDS011;35029;50.804;12.866;2023-02-28T07:06:19;19.53;;;12.40;;
49193;SDS011;35029;50.804;12.866;2023-02-28T07:08:47;15.67;;;11.27;;
49193;SDS011;35029;50.804;12.866;2023-02-28T07:11:16;15.82;;;11.02;;
49193;SDS011;35029;50.804;12.866;2023-02-28T07:13:41;14.40;;;10.50;;
49193;SDS011;35029;50.804;12.866;2023-02-28T07:16:07;17.27;;;11.48;;
49193;SDS011;35029;50.804;12.866;2023-02-28T07:18:36;18.37;;;11.73;;
49193;SDS011;35029;50.804;12.866;2023-02-28T07:21:03;16.97;;;11.23;;
49193;SDS011;35029;50.804;12.866;2023-02-28T07:23:30;15.80;;;11.07;;
49193;SDS011;35029;50.804;12.866;2023-02-28T07:25:57;17.33;;;11.20;;
49193;SDS011;35029;50.804;12.866;2023-02-28T07:28:23;16.27;;;11.47;;
49193;SDS011;35029;50.804;12.866;2023-02-28T07:30:49;18.50;;;11.33;;
49193;SDS011;35029;50.804;12.866;2023-02-28T07:33:16;17.57;;;11.60;;
49193;SDS011;35029;50.804;12.866;2023-02-28T07:35:43;16.10;;;11.93;;
49193;SDS011;35029;50.804;12.866;2023-02-28T07:38:08;16.40;;;11.97;;
49193;SDS011;35029;50.804;12.866;2023-02-28T07:40:35;16.80;;;11.77;;
49193;SDS011;35029;50.804;12.866;2023-02-28T07:43:01;14.65;;;10.23;;
49193;SDS011;35029;50.804;12.866;2023-02-28T07:45:27;19.97;;;10.87;;
49193;SDS011;35029;50.804;12.866;2023-02-28T07:47:54;18.73;;;11.33;;
49193;SDS011;35029;50.804;12.866;2023-02-28T07:50:20;15.20;;;10.52;;
49193;SDS011;35029;50.804;12.866;2023-02-28T07:52:48;19.75;;;9.88;;
49193;SDS011;35029;50.804;12.866;2023-02-28T07:55:13;18.20;;;9.97;;
49193;SDS011;35029;50.804;12.866;2023-02-28T07:57:40;17.07;;;10.97;;
49193;SDS011;35029;50.804;12.866;2023-02-28T08:00:07;15.27;;;10.50;;
49193;SDS011;35029;50.804;12.866;2023-02-28T08:02:39;15.55;;;9.25;;
49193;SDS011;35029;50.804;12.866;2023-02-28T08:05:05;13.98;;;9.57;;
49193;SDS011;35029;50.804;12.866;2023-02-28T08:07:31;15.00;;;9.77;;
49193;SDS011;35029;50.804;12.866;2023-02-28T08:09:58;12.25;;;8.55;;
49193;SDS011;35029;50.804;12.866;2023-02-28T08:12:24;12.10;;;7.60;;
49193;SDS011;35029;50.804;12.866;2023-02-28T08:14:49;13.32;;;8.35;;
49193;SDS011;35029;50.804;12.866;2023-02-28T08:17:15;13.27;;;8.13;;
49193;SDS011;35029;50.804;12.866;2023-02-28T08:19:40;12.05;;;8.07;;
49193;SDS011;35029;50.804;12.866;2023-02-28T08:22:06;12.40;;;8.15;;
49193;SDS011;35029;50.804;12.866;2023-02-28T08:24:33;17.40;;;7.88;;
49193;SDS011;35029;50.804;12.866;2023-02-28T08:26:59;10.82;;;7.40;;
49193;SDS011;35029;50.804;12.866;2023-02-28T08:29:24;11.48;;;7.70;;
49193;SDS011;35029;50.804;12.866;2023-02-28T08:31:50;10.57;;;6.73;;
49193;SDS011;35029;50.804;12.866;2023-02-28T08:34:16;11.43;;;7.73;;
49193;SDS011;35029;50.804;12.866;2023-02-28T08:36:42;12.50;;;6.93;;
49193;SDS011;35029;50.804;12.866;2023-02-28T08:39:10;8.73;;;6.72;;
49193;SDS011;35029;50.804;12.866;2023-02-28T08:41:36;9.07;;;6.43;;
49193;SDS011;35029;50.804;12.866;2023-02-28T08:44:02;11.60;;;7.68;;
49193;SDS011;35029;50.804;12.866;2023-02-28T08:46:28;12.23;;;7.20;;
49193;SDS011;35029;50.804;12.866;2023-02-28T08:48:54;10.65;;;7.47;;
49193;SDS011;35029;50.804;12.866;2023-02-28T08:51:21;11.77;;;7.00;;
49193;SDS011;35029;50.804;12.866;2023-02-28T08:53:52;9.43;;;7.15;;
49193;SDS011;35029;50.804;12.866;2023-02-28T08:56:18;11.05;;;7.88;;
49193;SDS011;35029;50.804;12.866;2023-02-28T08:58:45;10.13;;;6.95;;
49193;SDS011;35029;50.804;12.866;2023-02-28T09:01:13;11.25;;;7.28;;
49193;SDS011;35029;50.804;12.866;2023-02-28T09:03:43;9.77;;;6.30;;
49193;SDS011;35029;50.804;12.866;2023-02-28T09:06:11;9.52;;;6.47;;
49193;SDS011;35029;50.804;12.866;2023-02-28T09:08:37;13.57;;;7.57;;
49193;SDS011;35029;50.804;12.866;2023-02-28T09:11:03;10.90;;;7.07;;
49193;SDS011;35029;50.804;12.866;2023-02-28T09:13:29;11.18;;;6.88;;
49193;SDS011;35029;50.804;12.866;2023-02-28T09:15:59;9.98;;;6.43;;
49193;SDS011;35029;50.804;12.866;2023-02-28T09:18:26;12.27;;;6.55;;
49193;SDS011;35029;50.804;12.866;2023-02-28T09:20:51;12.52;;;6.53;;
49193;SDS011;35029;50.804;12.866;2023-02-28T09:23:18;11.98;;;7.00;;
49193;SDS011;35029;50.804;12.866;2023-02-28T09:25:47;11.88;;;6.65;;
49193;SDS011;35029;50.804;12.866;2023-02-28T09:28:14;10.27;;;6.75;;
49193;SDS011;35029;50.804;12.866;2023-02-28T09:30:42;10.02;;;6.75;;
49193;SDS011;35029;50.804;12.866;2023-02-28T09:33:10;10.98;;;6.65;;
49193;SDS011;35029;50.804;12.866;2023-02-28T09:35:35;11.85;;;7.13;;
49193;SDS011;35029;50.804;12.866;2023-02-28T09:38:02;9.52;;;6.03;;
49193;SDS011;35029;50.804;12.866;2023-02-28T09:40:28;10.07;;;6.53;;
49193;SDS011;35029;50.804;12.866;2023-02-28T09:42:55;11.93;;;6.30;;
49193;SDS011;35029;50.804;12.866;2023-02-28T09:47:56;11.50;;;6.55;;
49193;SDS011;35029;50.804;12.866;2023-02-28T09:50:33;12.30;;;6.50;;
49193;SDS011;35029;50.804;12.866;2023-02-28T09:53:02;11.07;;;7.25;;
49193;SDS011;35029;50.804;12.866;2023-02-28T09:55:37;9.85;;;6.53;;
49193;SDS011;35029;50.804;12.866;2023-02-28T09:58:15;10.95;;;6.50;;
49193;SDS011;35029;50.804;12.866;2023-02-28T10:00:46;8.48;;;5.90;;
49193;SDS011;35029;50.804;12.866;2023-02-28T10:08:41;11.55;;;6.55;;
49193;SDS011;35029;50.804;12.866;2023-02-28T10:11:14;10.90;;;6.57;;
49193;SDS011;35029;50.804;12.866;2023-02-28T10:16:48;13.07;;;8.00;;
49193;SDS011;35029;50.804;12.866;2023-02-28T10:24:50;11.90;;;7.70;;
49193;SDS011;35029;50.804;12.866;2023-02-28T10:27:24;12.07;;;7.20;;
49193;SDS011;35029;50.804;12.866;2023-02-28T10:29:54;12.35;;;7.45;;
49193;SDS011;35029;50.804;12.866;2023-02-28T10:32:26;10.95;;;6.70;;
49193;SDS011;35029;50.804;12.866;2023-02-28T10:35:15;11.75;;;7.80;;
49193;SDS011;35029;50.804;12.866;2023-02-28T10:37:45;9.60;;;7.28;;
49193;SDS011;35029;50.804;12.866;2023-02-28T10:40:25;11.25;;;7.78;;
49193;SDS011;35029;50.804;12.866;2023-02-28T10:42:57;10.52;;;7.75;;
49193;SDS011;35029;50.804;12.866;2023-02-28T10:45:26;13.07;;;7.57;;
49193;SDS011;35029;50.804;12.866;2023-02-28T10:50:50;11.48;;;7.45;;
49193;SDS011;35029;50.804;12.866;2023-02-28T10:58:25;11.48;;;7.88;;
49193;SDS011;35029;50.804;12.866;2023-02-28T11:00:56;13.65;;;8.43;;
49193;SDS011;35029;50.804;12.866;2023-02-28T11:03:23;13.05;;;8.02;;
49193;SDS011;35029;50.804;12.866;2023-02-28T11:05:57;12.25;;;8.60;;
49193;SDS011;35029;50.804;12.866;2023-02-28T11:08:29;11.60;;;7.85;;
49193;SDS011;35029;50.804;12.866;2023-02-28T11:10:55;11.85;;;8.07;;
49193;SDS011;35029;50.804;12.866;2023-02-28T11:13:28;11.73;;;7.75;;
49193;SDS011;35029;50.804;12.866;2023-02-28T11:16:03;12.02;;;7.63;;
49193;SDS011;35029;50.804;12.866;2023-02-28T11:18:33;11.73;;;7.75;;
49193;SDS011;35029;50.804;12.866;2023-02-28T11:21:04;11.73;;;8.02;;
49193;SDS011;35029;50.804;12.866;2023-02-28T11:23:30;13.27;;;8.05;;
49193;SDS011;35029;50.804;12.866;2023-02-28T11:26:08;12.15;;;8.60;;
49193;SDS011;35029;50.804;12.866;2023-02-28T11:28:38;14.45;;;8.68;;
49193;SDS011;35029;50.804;12.866;2023-02-28T11:31:14;14.02;;;8.38;;
49193;SDS011;35029;50.804;12.866;2023-02-28T11:33:45;11.50;;;8.27;;
49193;SDS011;35029;50.804;12.866;2023-02-28T11:38:40;13.80;;;8.48;;
49193;SDS011;35029;50.804;12.866;2023-02-28T11:46:42;13.73;;;9.93;;
49193;SDS011;35029;50.804;12.866;2023-02-28T11:51:45;13.75;;;9.65;;
49193;SDS011;35029;50.804;12.866;2023-02-28T11:57:15;11.68;;;8.20;;
49193;SDS011;35029;50.804;12.866;2023-02-28T12:02:54;13.23;;;9.65;;
49193;SDS011;35029;50.804;12.866;2023-02-28T12:05:29;11.77;;;8.10;;
49193;SDS011;35029;50.804;12.866;2023-02-28T12:08:05;14.32;;;9.35;;
49193;SDS011;35029;50.804;12.866;2023-02-28T12:10:53;11.13;;;7.50;;
49193;SDS011;35029;50.804;12.866;2023-02-28T12:16:39;12.45;;;8.90;;
49193;SDS011;35029;50.804;12.866;2023-02-28T12:27:40;13.48;;;8.15;;
49193;SDS011;35029;50.804;12.866;2023-02-28T12:33:31;12.23;;;7.75;;
49193;SDS011;35029;50.804;12.866;2023-02-28T12:38:12;11.02;;;7.43;;
49193;SDS011;35029;50.804;12.866;2023-02-28T12:40:58;12.75;;;8.75;;
49193;SDS011;35029;50.804;12.866;2023-02-28T12:43:51;12.23;;;7.95;;
49193;SDS011;35029;50.804;12.866;2023-02-28T12:46:25;11.00;;;8.30;;
49193;SDS011;35029;50.804;12.866;2023-02-28T12:48:56;12.23;;;7.93;;
49193;SDS011;35029;50.804;12.866;2023-02-28T12:51:24;10.73;;;7.35;;
49193;SDS011;35029;50.804;12.866;2023-02-28T13:10:53;14.07;;;8.10;;
49193;SDS011;35029;50.804;12.866;2023-02-28T13:13:20;9.48;;;7.45;;
49193;SDS011;35029;50.804;12.866;2023-02-28T13:18:42;13.75;;;8.48;;
49193;SDS011;35029;50.804;12.866;2023-02-28T13:21:23;13.07;;;8.15;;
49193;SDS011;35029;50.804;12.866;2023-02-28T13:34:31;13.25;;;7.68;;
49193;SDS011;35029;50.804;12.866;2023-02-28T13:42:41;11.23;;;7.70;;
49193;SDS011;35029;50.804;12.866;2023-02-28T13:47:40;9.77;;;7.45;;
49193;SDS011;35029;50.804;12.866;2023-02-28T13:55:51;12.85;;;8.55;;
49193;SDS011;35029;50.804;12.866;2023-02-28T13:58:46;12.07;;;8.18;;
49193;SDS011;35029;50.804;12.866;2023-02-28T14:01:30;12.35;;;7.82;;
49193;SDS011;35029;50.804;12.866;2023-02-28T14:04:37;10.73;;;8.10;;
49193;SDS011;35029;50.804;12.866;2023-02-28T14:07:09;12.88;;;8.82;;
49193;SDS011;35029;50.804;12.866;2023-02-28T14:09:47;13.45;;;9.35;;
49193;SDS011;35029;50.804;12.866;2023-02-28T14:15:55;14.05;;;9.10;;
49193;SDS011;35029;50.804;12.866;2023-02-28T14:21:43;13.13;;;9.80;;
49193;SDS011;35029;50.804;12.866;2023-02-28T14:24:19;13.35;;;9.75;;
49193;SDS011;35029;50.804;12.866;2023-02-28T14:32:25;14.02;;;10.00;;
49193;SDS011;35029;50.804;12.866;2023-02-28T14:35:00;11.60;;;8.98;;
49193;SDS011;35029;50.804;12.866;2023-02-28T14:37:39;12.98;;;8.85;;
49193;SDS011;35029;50.804;12.866;2023-02-28T14:42:57;13.90;;;9.77;;
49193;SDS011;35029;50.804;12.866;2023-02-28T14:45:32;16.55;;;9.35;;
49193;SDS011;35029;50.804;12.866;2023-02-28T14:48:01;14.10;;;8.88;;
49193;SDS011;35029;50.804;12.866;2023-02-28T14:50:30;12.85;;;9.45;;
49193;SDS011;35029;50.804;12.866;2023-02-28T14:52:58;13.23;;;9.63;;
49193;SDS011;35029;50.804;12.866;2023-02-28T14:55:32;14.93;;;9.40;;
49193;SDS011;35029;50.804;12.866;2023-02-28T14:58:00;15.55;;;10.63;;
49193;SDS011;35029;50.804;12.866;2023-02-28T15:00:30;15.02;;;9.93;;
49193;SDS011;35029;50.804;12.866;2023-02-28T15:02:58;12.02;;;9.48;;
49193;SDS011;35029;50.804;12.866;2023-02-28T15:08:05;16.30;;;11.48;;
49193;SDS011;35029;50.804;12.866;2023-02-28T15:10:37;13.38;;;9.80;;
49193;SDS011;35029;50.804;12.866;2023-02-28T15:13:10;13.45;;;9.63;;
49193;SDS011;35029;50.804;12.866;2023-02-28T15:21:07;11.70;;;8.95;;
49193;SDS011;35029;50.804;12.866;2023-02-28T15:23:39;12.43;;;8.90;;
49193;SDS011;35029;50.804;12.866;2023-02-28T15:26:16;14.70;;;8.73;;
49193;SDS011;35029;50.804;12.866;2023-02-28T15:28:44;11.20;;;9.15;;
49193;SDS011;35029;50.804;12.866;2023-02-28T15:31:18;13.48;;;9.27;;
49193;SDS011;35029;50.804;12.866;2023-02-28T15:33:58;13.40;;;9.43;;
49193;SDS011;35029;50.804;12.866;2023-02-28T15:36:30;16.40;;;10.82;;
49193;SDS011;35029;50.804;12.866;2023-02-28T15:38:59;14.82;;;10.23;;
49193;SDS011;35029;50.804;12.866;2023-02-28T15:41:36;14.77;;;10.05;;
49193;SDS011;35029;50.804;12.866;2023-02-28T15:50:01;15.32;;;10.63;;
49193;SDS011;35029;50.804;12.866;2023-02-28T15:57:48;16.48;;;11.65;;
49193;SDS011;35029;50.804;12.866;2023-02-28T16:00:18;17.15;;;11.05;;
49193;SDS011;35029;50.804;12.866;2023-02-28T16:02:48;13.63;;;10.13;;
49193;SDS011;35029;50.804;12.866;2023-02-28T16:05:30;15.82;;;11.02;;
49193;SDS011;35029;50.804;12.866;2023-02-28T16:08:18;16.27;;;11.57;;
49193;SDS011;35029;50.804;12.866;2023-02-28T16:10:43;18.05;;;12.18;;
49193;SDS011;35029;50.804;12.866;2023-02-28T16:13:08;16.40;;;12.50;;
49193;SDS011;35029;50.804;12.866;2023-02-28T16:18:08;17.70;;;12.35;;
49193;SDS011;35029;50.804;12.866;2023-02-28T16:20:36;18.13;;;12.90;;
49193;SDS011;35029;50.804;12.866;2023-02-28T16:23:02;19.25;;;12.93;;
49193;SDS011;35029;50.804;12.866;2023-02-28T16:25:35;17.05;;;12.60;;
49193;SDS011;35029;50.804;12.866;2023-02-28T16:28:01;16.95;;;13.70;;
49193;SDS011;35029;50.804;12.866;2023-02-28T16:30:27;17.58;;;13.30;;
49193;SDS011;35029;50.804;12.866;2023-02-28T16:32:56;16.27;;;12.57;;
49193;SDS011;35029;50.804;12.866;2023-02-28T16:35:22;17.33;;;13.32;;
49193;SDS011;35029;50.804;12.866;2023-02-28T16:37:50;18.27;;;13.50;;
49193;SDS011;35029;50.804;12.866;2023-02-28T16:40:17;18.80;;;13.88;;
49193;SDS011;35029;50.804;12.866;2023-02-28T16:42:46;23.75;;;14.68;;
49193;SDS011;35029;50.804;12.866;2023-02-28T16:45:32;17.55;;;13.40;;
49193;SDS011;35029;50.804;12.866;2023-02-28T16:47:58;18.27;;;13.32;;
49193;SDS011;35029;50.804;12.866;2023-02-28T16:50:25;15.63;;;12.68;;
49193;SDS011;35029;50.804;12.866;2023-02-28T16:52:53;20.92;;;12.90;;
49193;SDS011;35029;50.804;12.866;2023-02-28T16:55:20;18.52;;;13.85;;
49193;SDS011;35029;50.804;12.866;2023-02-28T16:57:55;22.52;;;14.48;;
49193;SDS011;35029;50.804;12.866;2023-02-28T17:00:25;19.65;;;15.63;;
49193;SDS011;35029;50.804;12.866;2023-02-28T17:02:52;18.25;;;14.25;;
49193;SDS011;35029;50.804;12.866;2023-02-28T17:05:18;19.83;;;13.35;;
49193;SDS011;35029;50.804;12.866;2023-02-28T17:07:44;19.27;;;14.23;;
49193;SDS011;35029;50.804;12.866;2023-02-28T17:12:36;20.70;;;13.55;;
49193;SDS011;35029;50.804;12.866;2023-02-28T17:15:01;19.55;;;14.60;;
49193;SDS011;35029;50.804;12.866;2023-02-28T17:17:27;21.25;;;15.15;;
49193;SDS011;35029;50.804;12.866;2023-02-28T17:19:54;22.40;;;14.25;;
49193;SDS011;35029;50.804;12.866;2023-02-28T17:22:19;23.10;;;15.60;;
49193;SDS011;35029;50.804;12.866;2023-02-28T17:24:45;23.23;;;14.75;;
49193;SDS011;35029;50.804;12.866;2023-02-28T17:27:11;21.70;;;15.15;;
49193;SDS011;35029;50.804;12.866;2023-02-28T17:29:38;24.58;;;15.35;;
49193;SDS011;35029;50.804;12.866;2023-02-28T17:32:03;22.58;;;14.20;;